KILM/ILM METAR and TAF weather

Enter ICAO airport designator
Station Type Date Time Source
KILM METAR 2020/07/06 01:53 UTC NOAA

KILM 060153Z 00000KT 10SM CLR 25/23 A3001 RMK AO2 SLP163 T02500228 $


Station Type Date Time Source
KILM Decoded METAR 2020/07/06 01:53 UTC NOAA

WILMINGTON INT'L AIRPORT, NC, United States (KILM) 34-16N 077-54W 9M
Jul 05, 2020 - 09:53 PM EDT / 2020.07.06 0153 UTC
Wind: Calm:0
Visibility: 10 mile(s):0
Sky conditions: clear
Temperature: 77.0 F (25.0 C)
Dew Point: 73.0 F (22.8 C)
Relative Humidity: 87%
Pressure (altimeter): 30.01 in. Hg (1016 hPa)
ob: KILM 060153Z 00000KT 10SM CLR 25/23 A3001 RMK AO2 SLP163 T02500228
cycle: 2

Station Type Date Time Source
KILM TAF 2020/07/05 18:22 UTC NOAA

TAF KILM 051720Z 0518/0618 15008KT P6SM VCTS FEW045CB BKN070 OVC250
FM060100 18004KT P6SM BKN250

Example: see airport list